Terminal Aerodrome Forecast
Issued by NWS King Salmon, AK

Current Version | Previous Version | Text Only | Print | Product List | Glossary On
Versions: 1 2 3 4 5 6 7 8 9 10 11 12 13 14
000
FTAK31 PANC 201203 AAA
TAFAKN
TAF AMD
PAKN 201203Z 2012/2112 18010KT P6SM SCT025 OVC050
      TEMPO 2012/2016 1SM -SHSN SCT015 OVC025
     FM201600 24008KT P6SM VCSH SCT025 BKN040
     FM210100 29007KT P6SM SCT060
     FM210600 34010KT P6SM SKC=

USA.gov is the U.S. government's official web portal to all federal, state and local government web resources and services.